createdAt,value
2018-07-12T00:00:01.623Z,19.30
2018-07-12T00:02:29.535Z,19.50
2018-07-12T00:04:56.794Z,19.70
2018-07-12T00:07:24.113Z,19.90
2018-07-12T00:09:52.052Z,19.70
2018-07-12T00:12:19.306Z,19.70
2018-07-12T00:14:46.623Z,19.70
2018-07-12T00:17:14.532Z,19.80
2018-07-12T00:19:41.808Z,20.00
2018-07-12T00:22:09.209Z,19.90
2018-07-12T00:24:36.461Z,20.00
2018-07-12T00:27:03.942Z,20.00
2018-07-12T00:29:31.247Z,19.70
2018-07-12T00:31:58.482Z,19.70
2018-07-12T00:34:25.775Z,19.90
2018-07-12T00:36:53.020Z,20.00
2018-07-12T00:39:20.422Z,20.10
2018-07-12T00:41:47.721Z,19.90
2018-07-12T00:44:14.945Z,20.10
2018-07-12T00:46:42.452Z,20.10
2018-07-12T00:49:10.204Z,20.20
2018-07-12T00:51:37.440Z,20.40
2018-07-12T00:54:04.769Z,20.40
2018-07-12T00:56:32.015Z,20.30
2018-07-12T00:58:59.242Z,20.30
2018-07-12T01:01:26.485Z,20.30
2018-07-12T01:03:53.720Z,20.30
2018-07-12T01:06:20.973Z,20.20
2018-07-12T01:08:48.198Z,19.90
2018-07-12T01:11:15.469Z,19.70
2018-07-12T01:13:42.707Z,19.50
2018-07-12T01:16:09.959Z,19.40
2018-07-12T01:18:37.350Z,19.30
2018-07-12T01:21:04.630Z,19.40
2018-07-12T01:23:31.851Z,19.40
2018-07-12T01:25:59.214Z,19.50
2018-07-12T01:28:26.463Z,19.40
2018-07-12T01:30:53.694Z,19.40
2018-07-12T01:33:20.946Z,19.30
2018-07-12T01:35:48.203Z,19.20
2018-07-12T01:38:15.438Z,19.20
2018-07-12T01:40:42.666Z,19.30
2018-07-12T01:43:10.276Z,19.40
2018-07-12T01:45:37.621Z,19.20
2018-07-12T01:48:05.582Z,19.20
2018-07-12T01:50:32.770Z,19.30
2018-07-12T01:53:01.030Z,19.20
2018-07-12T01:55:28.306Z,19.10
2018-07-12T01:57:55.881Z,18.90
2018-07-12T02:00:23.099Z,18.90
2018-07-12T02:02:50.338Z,19.10
2018-07-12T02:05:17.594Z,19.10
2018-07-12T02:07:44.931Z,18.90
2018-07-12T02:10:12.166Z,18.90
2018-07-12T02:12:39.447Z,18.90
2018-07-12T02:15:06.787Z,18.90
2018-07-12T02:17:34.023Z,18.90
2018-07-12T02:20:01.279Z,19.00
2018-07-12T02:22:28.586Z,19.10
2018-07-12T02:24:55.819Z,19.20
2018-07-12T02:27:23.065Z,19.30
2018-07-12T02:29:51.825Z,19.40
2018-07-12T02:32:19.018Z,19.40
2018-07-12T02:34:46.241Z,19.20
2018-07-12T02:37:13.665Z,19.40
2018-07-12T02:39:40.924Z,19.40
2018-07-12T02:42:08.139Z,19.50
2018-07-12T02:44:35.372Z,19.40
2018-07-12T02:47:02.623Z,19.30
2018-07-12T02:49:29.867Z,19.30
2018-07-12T02:51:57.110Z,19.20
2018-07-12T02:54:24.357Z,19.20
2018-07-12T02:56:51.723Z,19.40
2018-07-12T02:59:18.962Z,19.60
2018-07-12T03:01:46.227Z,19.50
2018-07-12T03:04:13.744Z,19.60
2018-07-12T03:06:40.966Z,19.70
2018-07-12T03:09:08.827Z,19.80
2018-07-12T03:11:36.758Z,19.80
2018-07-12T03:14:04.463Z,19.70
2018-07-12T03:16:31.854Z,19.70
2018-07-12T03:18:59.352Z,19.80
2018-07-12T03:21:26.674Z,19.90
2018-07-12T03:23:53.950Z,20.00
2018-07-12T03:26:21.378Z,19.90
2018-07-12T03:28:48.929Z,20.00
2018-07-12T03:31:16.179Z,19.80
2018-07-12T03:33:44.066Z,20.00
2018-07-12T03:36:11.275Z,19.90
2018-07-12T03:38:38.491Z,19.80
2018-07-12T03:41:06.165Z,19.70
2018-07-12T03:43:33.394Z,19.90
2018-07-12T03:46:00.649Z,20.00
2018-07-12T03:48:27.992Z,19.90
2018-07-12T03:50:55.563Z,19.90
2018-07-12T03:53:22.829Z,20.00
2018-07-12T03:55:50.065Z,20.00
2018-07-12T03:58:17.323Z,20.00
2018-07-12T04:00:44.629Z,20.00
2018-07-12T04:03:11.887Z,20.00
2018-07-12T04:05:39.106Z,20.00
2018-07-12T04:08:06.346Z,20.10
2018-07-12T04:10:33.574Z,20.20
2018-07-12T04:13:00.862Z,19.90
2018-07-12T04:15:28.110Z,19.90
2018-07-12T04:17:55.678Z,20.00
2018-07-12T04:20:22.909Z,20.10
2018-07-12T04:22:50.142Z,20.20
2018-07-12T04:25:17.417Z,20.20
2018-07-12T04:27:44.722Z,20.10
2018-07-12T04:30:12.020Z,20.20
2018-07-12T04:32:39.254Z,20.20
2018-07-12T04:35:06.667Z,20.10
2018-07-12T04:37:33.964Z,20.10
2018-07-12T04:40:01.226Z,20.10
2018-07-12T04:42:28.543Z,20.10
2018-07-12T04:44:55.789Z,19.90
2018-07-12T04:47:23.030Z,19.90
2018-07-12T04:49:50.279Z,20.00
2018-07-12T04:52:17.536Z,20.10
2018-07-12T04:54:44.772Z,20.20
2018-07-12T04:57:12.040Z,20.20
2018-07-12T04:59:39.265Z,20.00
2018-07-12T05:02:06.846Z,20.00
2018-07-12T05:04:34.067Z,20.10
2018-07-12T05:07:01.343Z,20.10
2018-07-12T05:09:28.761Z,20.30
2018-07-12T05:11:56.026Z,20.30
2018-07-12T05:14:23.271Z,20.20
2018-07-12T05:16:50.782Z,20.40
2018-07-12T05:19:18.034Z,20.30
2018-07-12T05:21:45.290Z,20.40
2018-07-12T05:24:12.534Z,20.60
2018-07-12T05:29:07.266Z,20.70
2018-07-12T05:31:34.509Z,20.60
2018-07-12T05:34:02.144Z,20.70
2018-07-12T05:36:38.415Z,20.60
2018-07-12T05:39:06.791Z,20.70
2018-07-12T05:41:35.064Z,20.80
2018-07-12T05:44:03.269Z,20.80
2018-07-12T05:46:31.535Z,20.90
2018-07-12T05:48:59.906Z,20.80
2018-07-12T05:51:28.142Z,20.80
2018-07-12T05:53:56.515Z,20.60
2018-07-12T05:56:24.738Z,20.70
2018-07-12T05:58:53.602Z,20.80
2018-07-12T06:01:33.258Z,20.70
2018-07-12T06:04:01.462Z,20.70
2018-07-12T06:06:30.626Z,20.80
2018-07-12T06:08:59.222Z,20.90
2018-07-12T06:11:27.443Z,21.00
2018-07-12T06:13:55.645Z,21.30
2018-07-12T06:16:23.926Z,21.50
2018-07-12T06:18:52.985Z,21.60
2018-07-12T06:21:22.079Z,21.80
2018-07-12T06:23:50.571Z,21.60
2018-07-12T06:28:46.950Z,22.10
2018-07-12T06:31:15.439Z,22.20
2018-07-12T06:33:43.676Z,22.10
2018-07-12T06:36:11.966Z,22.00
2018-07-12T06:38:40.286Z,22.10
2018-07-12T06:41:08.561Z,21.90
2018-07-12T06:43:37.038Z,22.00
2018-07-12T06:46:06.073Z,22.20
2018-07-12T06:48:34.339Z,22.20
2018-07-12T06:51:02.549Z,22.50
2018-07-12T06:53:31.510Z,22.90
2018-07-12T06:56:00.159Z,23.00
2018-07-12T06:58:28.423Z,23.20
2018-07-12T07:00:56.694Z,23.00
2018-07-12T07:03:24.954Z,23.00
2018-07-12T07:05:53.514Z,23.00
2018-07-12T07:08:22.173Z,23.20
2018-07-12T07:10:51.648Z,23.40
2018-07-12T07:13:19.850Z,23.40
2018-07-12T07:15:48.218Z,23.20
2018-07-12T07:18:16.550Z,23.20
2018-07-12T07:20:44.942Z,23.20
2018-07-12T07:23:13.246Z,23.10
2018-07-12T07:25:41.554Z,22.90
2018-07-12T07:28:09.806Z,23.00
2018-07-12T07:30:38.178Z,23.10
2018-07-12T07:33:06.530Z,23.60
2018-07-12T07:35:34.763Z,24.00
2018-07-12T07:38:03.133Z,24.00
2018-07-12T07:40:31.364Z,24.30
2018-07-12T07:42:59.842Z,24.40
2018-07-12T07:45:28.447Z,24.20
2018-07-12T07:47:56.682Z,24.20
2018-07-12T07:50:25.027Z,24.70
2018-07-12T07:52:53.668Z,24.70
2018-07-12T07:55:22.685Z,24.70
2018-07-12T07:57:50.963Z,25.20
2018-07-12T08:00:19.211Z,25.60
2018-07-12T08:02:47.469Z,25.70
2018-07-12T08:05:16.767Z,26.00
2018-07-12T08:07:46.045Z,26.40
2018-07-12T08:10:14.774Z,26.20
2018-07-12T08:12:43.429Z,26.40
2018-07-12T08:15:11.656Z,26.60
2018-07-12T08:17:39.914Z,27.00
2018-07-12T08:20:08.213Z,27.30
2018-07-12T08:22:37.274Z,27.60
2018-07-12T08:25:06.175Z,27.40
2018-07-12T08:27:34.358Z,27.40
2018-07-12T08:30:02.629Z,27.80
2018-07-12T08:32:31.838Z,27.70
2018-07-12T08:35:01.842Z,27.60
2018-07-12T08:37:30.131Z,28.20
2018-07-12T08:39:58.389Z,28.80
2018-07-12T08:42:26.765Z,29.10
2018-07-12T08:44:59.927Z,29.80
2018-07-12T08:47:28.506Z,30.40
2018-07-12T08:49:56.713Z,30.70
2018-07-12T08:52:24.919Z,31.90
2018-07-12T08:54:53.803Z,32.40
2018-07-12T08:57:22.095Z,32.40
2018-07-12T08:59:50.337Z,32.40
2018-07-12T09:02:18.622Z,32.70
2018-07-12T09:04:46.874Z,32.50
2018-07-12T09:07:15.653Z,32.80
2018-07-12T09:09:44.119Z,32.30
2018-07-12T09:12:12.394Z,31.50
2018-07-12T09:14:40.614Z,30.80
2018-07-12T09:17:08.852Z,30.20
2018-07-12T09:19:37.195Z,29.40
2018-07-12T09:22:05.532Z,29.50
2018-07-12T09:24:33.854Z,29.60
2018-07-12T09:27:02.095Z,30.00
2018-07-12T09:29:30.862Z,32.10
2018-07-12T09:31:59.187Z,34.60
2018-07-12T09:34:27.493Z,35.20
2018-07-12T09:36:55.774Z,35.10
2018-07-12T09:39:23.974Z,34.60
2018-07-12T09:41:53.050Z,33.80
2018-07-12T09:44:23.166Z,33.00
2018-07-12T09:46:52.202Z,32.60
2018-07-12T09:49:20.553Z,31.70
2018-07-12T09:51:48.791Z,30.70
2018-07-12T09:54:17.044Z,31.30
2018-07-12T09:56:56.684Z,32.40
2018-07-12T09:59:24.886Z,31.90
2018-07-12T10:01:59.222Z,31.40
2018-07-12T10:04:28.013Z,31.90
2018-07-12T10:07:02.171Z,32.20
2018-07-12T10:09:36.772Z,32.20
2018-07-12T10:12:10.463Z,33.90
2018-07-12T10:14:44.814Z,36.60
2018-07-12T10:17:17.285Z,40.00
2018-07-12T10:19:46.529Z,41.80
2018-07-12T10:22:14.954Z,41.00
2018-07-12T10:24:44.355Z,39.50
2018-07-12T10:27:12.530Z,37.80
2018-07-12T10:29:40.767Z,36.00
2018-07-12T10:32:09.003Z,34.40
2018-07-12T10:34:37.481Z,35.80
2018-07-12T10:37:06.123Z,38.70
2018-07-12T10:39:34.395Z,41.40
2018-07-12T10:42:02.651Z,43.40
2018-07-12T10:44:32.015Z,44.40
2018-07-12T10:47:01.078Z,45.00
2018-07-12T10:49:29.341Z,46.40
2018-07-12T10:51:57.631Z,46.30
2018-07-12T10:54:25.840Z,44.30
2018-07-12T10:56:54.130Z,43.90
2018-07-12T10:59:23.330Z,45.20
2018-07-12T11:04:20.186Z,44.10
2018-07-12T11:06:48.494Z,42.40
2018-07-12T11:09:16.766Z,43.50
2018-07-12T11:11:45.292Z,44.60
2018-07-12T11:14:14.604Z,45.60
2018-07-12T11:16:42.945Z,46.60
2018-07-12T11:19:11.256Z,47.70
2018-07-12T11:21:39.511Z,48.70
2018-07-12T11:24:07.908Z,50.00
2018-07-12T11:26:37.449Z,50.00
2018-07-12T11:32:09.421Z,50.90
2018-07-12T11:34:37.836Z,48.40
2018-07-12T11:37:06.151Z,45.10
2018-07-12T11:39:34.483Z,42.00
2018-07-12T11:42:02.741Z,40.80
2018-07-12T11:44:31.671Z,41.90
2018-07-12T11:47:00.512Z,43.50
2018-07-12T11:49:28.999Z,43.90
2018-07-12T11:54:25.356Z,40.40
2018-07-12T11:56:54.323Z,41.20
2018-07-12T11:59:22.725Z,43.50
2018-07-12T12:01:50.996Z,45.70
2018-07-12T12:04:19.282Z,47.40
2018-07-12T12:06:47.581Z,48.60
2018-07-12T12:09:15.910Z,49.90
2018-07-12T12:11:47.961Z,50.00
2018-07-12T12:14:16.359Z,49.90
2018-07-12T12:16:44.649Z,50.80
2018-07-12T12:19:12.970Z,52.40
2018-07-12T12:21:41.213Z,52.90
2018-07-12T12:24:09.448Z,52.70
2018-07-12T12:26:37.814Z,52.10
2018-07-12T12:29:06.312Z,50.70
2018-07-12T12:31:34.614Z,49.30
2018-07-12T12:34:02.973Z,49.10
2018-07-12T12:36:32.343Z,48.70
2018-07-12T12:39:00.673Z,48.70
2018-07-12T12:41:29.090Z,47.50
2018-07-12T12:43:57.317Z,46.20
2018-07-12T12:46:25.602Z,44.30
2018-07-12T12:48:53.869Z,43.00
2018-07-12T12:51:22.713Z,41.50
2018-07-12T12:53:51.019Z,40.60
2018-07-12T12:56:19.277Z,40.10
2018-07-12T12:58:47.587Z,39.10
2018-07-12T13:01:16.555Z,38.20
2018-07-12T13:03:44.944Z,38.20
2018-07-12T13:06:14.403Z,38.50
2018-07-12T13:08:42.635Z,39.60
2018-07-12T13:11:10.931Z,41.60
2018-07-12T13:13:39.218Z,41.90
2018-07-12T13:16:07.590Z,41.00
2018-07-12T13:18:35.912Z,40.50
2018-07-12T13:21:04.191Z,41.50
2018-07-12T13:23:32.481Z,41.50
2018-07-12T13:26:01.535Z,39.90
2018-07-12T13:28:29.972Z,38.70
2018-07-12T13:30:58.300Z,37.60
2018-07-12T13:35:54.586Z,35.80
2018-07-12T13:38:23.404Z,36.30
2018-07-12T13:40:52.043Z,36.30
2018-07-12T13:43:21.421Z,36.10
2018-07-12T13:45:49.889Z,35.60
2018-07-12T13:48:18.224Z,35.80
2018-07-12T13:50:46.706Z,37.10
2018-07-12T13:53:15.051Z,39.70
2018-07-12T13:55:43.622Z,40.20
2018-07-12T13:58:12.220Z,39.30
2018-07-12T14:00:40.482Z,38.30
2018-07-12T14:03:08.760Z,37.20
2018-07-12T14:05:37.704Z,36.50
2018-07-12T14:08:06.040Z,36.00
2018-07-12T14:10:34.280Z,35.50
2018-07-12T14:13:02.535Z,34.90
2018-07-12T14:15:31.112Z,34.50
2018-07-12T14:17:59.455Z,34.50
2018-07-12T14:20:27.712Z,36.40
2018-07-12T14:22:55.962Z,39.50
2018-07-12T14:25:24.328Z,40.90
2018-07-12T14:27:53.145Z,40.70
2018-07-12T14:30:22.052Z,39.40
2018-07-12T14:32:52.060Z,38.40
2018-07-12T14:35:20.299Z,39.40
2018-07-12T14:37:48.663Z,41.10
2018-07-12T14:40:16.961Z,41.10
2018-07-12T14:42:45.262Z,40.50
2018-07-12T14:45:13.893Z,40.00
2018-07-12T14:47:42.111Z,40.10
2018-07-12T14:50:10.367Z,41.30
2018-07-12T14:52:38.765Z,42.90
2018-07-12T14:55:07.019Z,44.00
2018-07-12T14:57:36.031Z,45.20
2018-07-12T15:00:04.258Z,45.70
2018-07-12T15:02:32.539Z,46.10
2018-07-12T15:05:01.275Z,46.50
2018-07-12T15:07:29.519Z,46.70
2018-07-12T15:09:57.718Z,46.70
2018-07-12T15:12:25.949Z,46.20
2018-07-12T15:14:54.230Z,44.80
2018-07-12T15:17:23.713Z,43.00
2018-07-12T15:19:52.004Z,40.80
2018-07-12T15:22:20.251Z,38.70
2018-07-12T15:24:48.494Z,37.40
2018-07-12T15:27:16.694Z,36.60
2018-07-12T15:29:44.951Z,35.90
2018-07-12T15:32:13.162Z,35.80
2018-07-12T15:34:41.409Z,36.70
2018-07-12T15:37:09.734Z,37.00
2018-07-12T15:39:37.930Z,36.40
2018-07-12T15:42:06.843Z,35.80
2018-07-12T15:44:35.106Z,35.00
2018-07-12T15:47:03.370Z,33.80
2018-07-12T15:49:31.626Z,33.20
2018-07-12T15:52:00.450Z,33.20
2018-07-12T15:54:28.707Z,33.50
2018-07-12T15:56:57.022Z,34.30
2018-07-12T15:59:25.237Z,35.20
2018-07-12T16:01:54.617Z,35.70
2018-07-12T16:04:23.574Z,36.20
2018-07-12T16:06:52.760Z,36.30
2018-07-12T16:09:21.755Z,35.80
2018-07-12T16:11:49.942Z,35.50
2018-07-12T16:14:18.178Z,34.90
2018-07-12T16:16:46.558Z,34.40
2018-07-12T16:19:15.367Z,34.00
2018-07-12T16:21:44.400Z,33.90
2018-07-12T16:24:12.639Z,33.50
2018-07-12T16:26:40.911Z,33.00
2018-07-12T16:29:09.208Z,32.50
2018-07-12T16:31:37.510Z,32.20
2018-07-12T16:34:05.757Z,31.80
2018-07-12T16:36:33.993Z,31.30
2018-07-12T16:39:02.340Z,30.90
2018-07-12T16:41:30.638Z,30.40
2018-07-12T16:43:58.915Z,30.20
2018-07-12T16:46:27.145Z,29.90
2018-07-12T16:48:55.363Z,29.80
2018-07-12T16:51:24.235Z,29.50
2018-07-12T16:53:53.493Z,29.10
2018-07-12T16:56:22.706Z,29.10
2018-07-12T16:58:51.829Z,29.40
2018-07-12T17:01:20.125Z,29.40
2018-07-12T17:03:49.162Z,29.60
2018-07-12T17:06:17.530Z,29.80
2018-07-12T17:08:46.686Z,29.60
2018-07-12T17:11:14.929Z,29.60
2018-07-12T17:13:43.198Z,29.80
2018-07-12T17:16:12.586Z,29.50
2018-07-12T17:18:40.814Z,29.40
2018-07-12T17:21:09.046Z,28.90
2018-07-12T17:23:38.251Z,28.90
2018-07-12T17:26:07.181Z,28.70
2018-07-12T17:28:35.403Z,28.60
2018-07-12T17:31:03.633Z,28.60
2018-07-12T17:33:31.958Z,28.50
2018-07-12T17:36:00.191Z,28.20
2018-07-12T17:38:28.500Z,28.00
2018-07-12T17:40:56.916Z,28.00
2018-07-12T17:43:25.117Z,28.00
2018-07-12T17:45:54.279Z,28.00
2018-07-12T17:48:22.774Z,28.00
2018-07-12T17:50:51.022Z,27.90
2018-07-12T17:53:19.228Z,27.50
2018-07-12T17:55:47.487Z,27.30
2018-07-12T17:58:15.930Z,27.10
2018-07-12T18:00:44.900Z,27.10
2018-07-12T18:03:13.154Z,27.30
2018-07-12T18:05:41.379Z,27.30
2018-07-12T18:08:09.610Z,27.30
2018-07-12T18:10:38.093Z,27.30
2018-07-12T18:13:06.354Z,27.10
2018-07-12T18:15:34.564Z,27.30
2018-07-12T18:18:03.215Z,27.30
2018-07-12T18:20:31.505Z,27.20
2018-07-12T18:22:59.710Z,27.30
2018-07-12T18:25:28.036Z,27.30
2018-07-12T18:27:56.275Z,27.30
2018-07-12T18:30:24.506Z,27.30
2018-07-12T18:35:21.969Z,27.10
2018-07-12T18:37:50.120Z,27.10
2018-07-12T18:40:18.372Z,27.10
2018-07-12T18:42:46.594Z,27.10
2018-07-12T18:45:15.596Z,27.10
2018-07-12T18:47:43.838Z,27.00
2018-07-12T18:50:12.078Z,27.00
2018-07-12T18:52:40.422Z,26.90
2018-07-12T18:55:09.200Z,26.80
2018-07-12T18:57:37.969Z,26.60
2018-07-12T19:00:06.273Z,26.70
2018-07-12T19:02:34.889Z,26.60
2018-07-12T19:05:04.117Z,26.50
2018-07-12T19:07:32.379Z,26.50
2018-07-12T19:10:00.655Z,26.60
2018-07-12T19:12:29.658Z,26.40
2018-07-12T19:14:58.079Z,26.30
2018-07-12T19:17:26.246Z,26.30
2018-07-12T19:19:54.519Z,26.30
2018-07-12T19:22:22.861Z,26.20
2018-07-12T19:24:51.100Z,26.20
2018-07-12T19:27:19.363Z,26.10
2018-07-12T19:29:47.630Z,25.90
2018-07-12T19:32:15.939Z,25.70
2018-07-12T19:34:44.299Z,25.70
2018-07-12T19:37:12.531Z,25.70
2018-07-12T19:39:40.783Z,25.60
2018-07-12T19:42:09.105Z,25.30
2018-07-12T19:44:37.609Z,25.40
2018-07-12T19:47:05.898Z,25.30
2018-07-12T19:49:34.106Z,25.10
2018-07-12T19:52:02.357Z,25.30
2018-07-12T19:54:31.290Z,25.30
2018-07-12T19:56:59.550Z,25.20
2018-07-12T19:59:27.829Z,25.20
2018-07-12T20:01:56.068Z,25.30
2018-07-12T20:04:24.318Z,25.40
2018-07-12T20:06:52.583Z,25.30
2018-07-12T20:09:20.831Z,25.40
2018-07-12T20:11:49.063Z,25.30
2018-07-12T20:14:17.326Z,25.30
2018-07-12T20:16:45.793Z,25.30
2018-07-12T20:19:14.063Z,25.20
2018-07-12T20:21:42.303Z,25.30
2018-07-12T20:24:10.534Z,25.20
2018-07-12T20:26:39.694Z,25.30
2018-07-12T20:29:08.086Z,25.30
2018-07-12T20:31:36.407Z,25.40
2018-07-12T20:34:04.618Z,25.30
2018-07-12T20:36:32.826Z,25.30
2018-07-12T20:39:01.258Z,25.40
2018-07-12T20:41:29.777Z,25.30
2018-07-12T20:43:58.027Z,25.10
2018-07-12T20:48:54.677Z,25.10
2018-07-12T20:51:23.093Z,25.00
2018-07-12T20:53:51.330Z,25.10
2018-07-12T20:56:19.678Z,25.10
2018-07-12T20:58:47.894Z,25.00
2018-07-12T21:01:16.327Z,25.00
2018-07-12T21:03:44.641Z,24.90
2018-07-12T21:06:12.914Z,24.90
2018-07-12T21:08:41.158Z,24.90
2018-07-12T21:11:09.401Z,24.80
2018-07-12T21:13:38.189Z,24.80
2018-07-12T21:16:06.531Z,24.80
2018-07-12T21:18:34.909Z,24.80
2018-07-12T21:21:03.286Z,25.00
2018-07-12T21:23:31.578Z,25.10
2018-07-12T21:26:00.415Z,25.10
2018-07-12T21:28:28.666Z,25.10
2018-07-12T21:30:56.940Z,24.90
2018-07-12T21:33:25.217Z,24.70
2018-07-12T21:35:53.494Z,24.80
2018-07-12T21:38:22.425Z,24.70
2018-07-12T21:40:50.654Z,24.40
2018-07-12T21:43:18.861Z,24.50
2018-07-12T21:45:47.075Z,24.40
2018-07-12T21:48:15.443Z,24.50
2018-07-12T21:50:43.719Z,24.40
2018-07-12T21:53:12.794Z,24.30
2018-07-12T21:55:41.033Z,24.30
2018-07-12T21:58:09.278Z,24.30
2018-07-12T22:00:37.597Z,24.20
2018-07-12T22:03:05.870Z,24.20
2018-07-12T22:05:35.071Z,24.20
2018-07-12T22:08:14.145Z,24.20
2018-07-12T22:10:43.447Z,24.10
2018-07-12T22:13:12.198Z,24.10
2018-07-12T22:15:40.486Z,24.30
2018-07-12T22:18:09.786Z,24.30
2018-07-12T22:20:38.010Z,24.30
2018-07-12T22:23:06.344Z,24.30
2018-07-12T22:25:34.570Z,24.30
2018-07-12T22:28:02.917Z,24.40
2018-07-12T22:30:31.752Z,24.40
2018-07-12T22:33:01.029Z,24.40
2018-07-12T22:35:29.498Z,24.40
2018-07-12T22:37:58.954Z,24.40
2018-07-12T22:40:27.341Z,24.40
2018-07-12T22:42:55.618Z,24.30
2018-07-12T22:45:24.062Z,24.40
2018-07-12T22:47:52.402Z,24.50
2018-07-12T22:50:20.669Z,24.50
2018-07-12T22:52:48.911Z,24.50
2018-07-12T22:55:17.137Z,24.50
2018-07-12T22:57:45.508Z,24.40
2018-07-12T23:00:14.204Z,24.30
2018-07-12T23:02:42.611Z,24.30
2018-07-12T23:05:10.845Z,24.40
2018-07-12T23:07:39.201Z,24.40
2018-07-12T23:10:07.553Z,24.30
2018-07-12T23:12:36.062Z,24.20
2018-07-12T23:15:04.375Z,24.40
2018-07-12T23:17:32.607Z,24.30
2018-07-12T23:20:01.092Z,24.30
2018-07-12T23:22:29.380Z,24.30
2018-07-12T23:24:57.606Z,24.10
2018-07-12T23:27:25.898Z,24.20
2018-07-12T23:29:54.316Z,24.10
2018-07-12T23:32:22.666Z,24.20
2018-07-12T23:34:50.938Z,24.30
2018-07-12T23:37:19.204Z,24.20
2018-07-12T23:39:47.490Z,24.10
2018-07-12T23:42:16.045Z,24.00
2018-07-12T23:44:44.544Z,24.00
2018-07-12T23:47:12.810Z,23.80
2018-07-12T23:49:41.118Z,23.80
2018-07-12T23:52:09.359Z,23.90
2018-07-12T23:54:37.606Z,23.90
2018-07-12T23:57:05.854Z,24.00
2018-07-12T23:59:34.102Z,23.90
